Aeroporto :
LOGIN :

Iscrizione | Disclaimer

   EN    FR    IT 

 










Sommario :    VFR   VFR Marginale   IFR   IFR Intensivo   IFR Molto Intensivo
Visibilità : 
Base nubi : 
>= 8 km
>= 3000ft
5 / 8 km
1000 / 3000 ft
1500m / 5 km
500 / 1000 ft
800 / 1500m
200 / 500 ft
< 800m
< 200 ft
Simboli :   Temporali  Nebbia  Neve Forte  Precipitazioni Forti  Vento > 20 kt
SIGMETs :   Varie  Temporali  Ghiacco  Turbolenza  Onda orograficha  Ceneri Vulcaniche






- Altitudine del aeroporto : 273 ft


EGXT - RAF Wittering Stamford

ULTIMO METAR :
  • 181720Z AUTO 07007KT 9999 FEW035/// SCT056/// 17/12 Q1015

METARs OBSOLETI :
  • 181650Z AUTO 04007KT 9999 BKN036/// BKN052/// 18/10 Q1015
  • 181620Z AUTO 35004KT 9999 FEW035/// 18/09 Q1015
  • 181550Z AUTO 29006KT 9999 FEW033/// BKN053/// 18/09 Q1015
  • 181520Z AUTO 34005KT 9999 FEW036/// BKN044/// 19/09 Q1015
  • 181450Z 30004KT 9999 BKN036 19/09 Q1015 RMK BLU
  • 181420Z 32005KT 9999 BKN037 18/08 Q1015 RMK BLU
  • 181350Z 30007KT 9999 FEW032 BKN040 18/09 Q1015 RMK BLU
  • 181320Z 31006KT 9999 BKN032 18/10 Q1015 RMK BLU

Previsioni scadute.



MetMap, La meteo Aeronautica in un colpo d'occhio ! - Copyright ORBIFLY Dicembre 2007 - Disclaimer

ORBIFLY MET'MAP TEAM :

Programmazione e sviluppo : Alexandra Zaïnal
Concezione : Baudouin d'Aumeries
Supporto tecnico e logistico : Manuel Goepfert
Aiuto : Marc-Olivier Méhu
Aiuto per la traduzione : Arnaldo La Scala




FONTI E CREDITI :

   NOAA